sensor_id;sensor_type;location;lat;lon;timestamp;temperature;humidity
19483;DHT22;9882;51.166;6.992;2022-10-22T04:02:07;14.40;99.90
19483;DHT22;9882;51.166;6.992;2022-10-22T04:04:36;14.30;99.90
19483;DHT22;9882;51.166;6.992;2022-10-22T04:07:06;14.30;99.90
19483;DHT22;9882;51.166;6.992;2022-10-22T04:09:36;14.40;99.90
19483;DHT22;9882;51.166;6.992;2022-10-22T04:12:05;14.40;99.90
19483;DHT22;9882;51.166;6.992;2022-10-22T04:14:36;14.50;99.90
19483;DHT22;9882;51.166;6.992;2022-10-22T04:17:06;14.40;99.90
19483;DHT22;9882;51.166;6.992;2022-10-22T04:19:36;14.40;99.90
19483;DHT22;9882;51.166;6.992;2022-10-22T04:22:05;14.50;99.90
19483;DHT22;9882;51.166;6.992;2022-10-22T04:24:34;14.40;99.90
19483;DHT22;9882;51.166;6.992;2022-10-22T04:27:04;14.50;99.90
19483;DHT22;9882;51.166;6.992;2022-10-22T04:29:33;14.50;99.90
19483;DHT22;9882;51.166;6.992;2022-10-22T04:32:02;14.50;99.90
19483;DHT22;9882;51.166;6.992;2022-10-22T04:34:33;14.50;99.90
19483;DHT22;9882;51.166;6.992;2022-10-22T04:37:02;14.50;99.90
19483;DHT22;9882;51.166;6.992;2022-10-22T04:39:32;14.40;99.90
19483;DHT22;9882;51.166;6.992;2022-10-22T04:42:02;14.40;99.90
19483;DHT22;9882;51.166;6.992;2022-10-22T04:44:32;14.40;99.90
19483;DHT22;9882;51.166;6.992;2022-10-22T04:47:01;14.40;99.90
19483;DHT22;9882;51.166;6.992;2022-10-22T04:49:30;14.40;99.90
19483;DHT22;9882;51.166;6.992;2022-10-22T04:52:01;14.40;99.90
19483;DHT22;9882;51.166;6.992;2022-10-22T04:54:30;14.40;99.90
19483;DHT22;9882;51.166;6.992;2022-10-22T04:56:59;14.30;99.90
19483;DHT22;9882;51.166;6.992;2022-10-22T04:59:28;14.30;99.90
19483;DHT22;9882;51.166;6.992;2022-10-22T05:01:57;14.30;99.90
19483;DHT22;9882;51.166;6.992;2022-10-22T05:04:26;14.30;99.90
19483;DHT22;9882;51.166;6.992;2022-10-22T05:06:55;14.40;99.90
19483;DHT22;9882;51.166;6.992;2022-10-22T05:09:26;14.30;99.90
19483;DHT22;9882;51.166;6.992;2022-10-22T05:11:55;14.30;99.90
19483;DHT22;9882;51.166;6.992;2022-10-22T05:14:24;14.40;99.90
19483;DHT22;9882;51.166;6.992;2022-10-22T05:16:54;14.40;99.90
19483;DHT22;9882;51.166;6.992;2022-10-22T05:19:25;14.40;99.90
19483;DHT22;9882;51.166;6.992;2022-10-22T05:21:55;14.40;99.90
19483;DHT22;9882;51.166;6.992;2022-10-22T05:24:28;14.40;99.90
19483;DHT22;9882;51.166;6.992;2022-10-22T05:26:58;14.30;99.90
19483;DHT22;9882;51.166;6.992;2022-10-22T05:29:28;14.20;99.90
19483;DHT22;9882;51.166;6.992;2022-10-22T05:31:57;14.30;99.90
19483;DHT22;9882;51.166;6.992;2022-10-22T05:34:26;14.20;99.90
19483;DHT22;9882;51.166;6.992;2022-10-22T05:36:55;14.20;99.90
19483;DHT22;9882;51.166;6.992;2022-10-22T05:39:25;14.20;99.90
19483;DHT22;9882;51.166;6.992;2022-10-22T05:41:55;14.20;99.90
19483;DHT22;9882;51.166;6.992;2022-10-22T05:44:25;14.20;99.90
19483;DHT22;9882;51.166;6.992;2022-10-22T05:46:54;14.10;99.90
19483;DHT22;9882;51.166;6.992;2022-10-22T05:49:23;14.10;99.90
19483;DHT22;9882;51.166;6.992;2022-10-22T05:51:52;14.00;99.90
19483;DHT22;9882;51.166;6.992;2022-10-22T05:54:21;14.10;99.90
19483;DHT22;9882;51.166;6.992;2022-10-22T05:56:52;14.00;99.90
19483;DHT22;9882;51.166;6.992;2022-10-22T05:59:22;14.00;99.90
19483;DHT22;9882;51.166;6.992;2022-10-22T06:01:51;14.00;99.90
19483;DHT22;9882;51.166;6.992;2022-10-22T06:04:21;14.00;99.90
19483;DHT22;9882;51.166;6.992;2022-10-22T06:06:51;14.00;99.90
19483;DHT22;9882;51.166;6.992;2022-10-22T06:09:23;13.90;99.90
19483;DHT22;9882;51.166;6.992;2022-10-22T06:11:54;13.90;99.90
19483;DHT22;9882;51.166;6.992;2022-10-22T06:14:24;14.00;99.90
19483;DHT22;9882;51.166;6.992;2022-10-22T06:16:54;14.00;99.90
19483;DHT22;9882;51.166;6.992;2022-10-22T06:19:23;14.00;99.90
19483;DHT22;9882;51.166;6.992;2022-10-22T06:21:53;14.10;99.90
19483;DHT22;9882;51.166;6.992;2022-10-22T06:24:23;14.10;99.90
19483;DHT22;9882;51.166;6.992;2022-10-22T06:26:53;14.00;99.90
19483;DHT22;9882;51.166;6.992;2022-10-22T06:29:23;14.10;99.90
19483;DHT22;9882;51.166;6.992;2022-10-22T06:31:52;14.10;99.90
19483;DHT22;9882;51.166;6.992;2022-10-22T06:34:21;14.10;99.90
19483;DHT22;9882;51.166;6.992;2022-10-22T06:36:50;14.10;99.90
19483;DHT22;9882;51.166;6.992;2022-10-22T06:39:19;14.10;99.90
19483;DHT22;9882;51.166;6.992;2022-10-22T06:41:48;14.00;99.90
19483;DHT22;9882;51.166;6.992;2022-10-22T06:44:19;14.10;99.90
19483;DHT22;9882;51.166;6.992;2022-10-22T06:46:49;14.10;99.90
19483;DHT22;9882;51.166;6.992;2022-10-22T06:49:20;14.10;99.90
19483;DHT22;9882;51.166;6.992;2022-10-22T06:51:49;14.10;99.90
19483;DHT22;9882;51.166;6.992;2022-10-22T06:54:19;14.10;99.90
19483;DHT22;9882;51.166;6.992;2022-10-22T06:56:48;14.10;99.90
19483;DHT22;9882;51.166;6.992;2022-10-22T06:59:18;14.20;99.90
19483;DHT22;9882;51.166;6.992;2022-10-22T07:01:47;14.10;99.90
19483;DHT22;9882;51.166;6.992;2022-10-22T07:04:16;14.10;99.90
19483;DHT22;9882;51.166;6.992;2022-10-22T07:06:45;14.20;99.90
19483;DHT22;9882;51.166;6.992;2022-10-22T07:09:15;14.20;99.90
19483;DHT22;9882;51.166;6.992;2022-10-22T07:11:45;14.20;99.90
19483;DHT22;9882;51.166;6.992;2022-10-22T07:14:14;14.20;99.90
19483;DHT22;9882;51.166;6.992;2022-10-22T07:16:45;14.20;99.90
19483;DHT22;9882;51.166;6.992;2022-10-22T07:19:14;14.20;99.90
19483;DHT22;9882;51.166;6.992;2022-10-22T07:21:43;14.20;99.90
19483;DHT22;9882;51.166;6.992;2022-10-22T07:24:12;14.10;99.90
19483;DHT22;9882;51.166;6.992;2022-10-22T07:26:41;14.20;99.90
19483;DHT22;9882;51.166;6.992;2022-10-22T07:29:10;14.40;99.90
19483;DHT22;9882;51.166;6.992;2022-10-22T07:31:42;14.20;99.90
19483;DHT22;9882;51.166;6.992;2022-10-22T07:34:12;14.40;99.90
19483;DHT22;9882;51.166;6.992;2022-10-22T07:36:42;14.40;99.90
19483;DHT22;9882;51.166;6.992;2022-10-22T07:39:11;14.40;99.90
19483;DHT22;9882;51.166;6.992;2022-10-22T07:41:40;14.50;99.90
19483;DHT22;9882;51.166;6.992;2022-10-22T07:44:09;14.40;99.90
19483;DHT22;9882;51.166;6.992;2022-10-22T07:46:38;14.60;99.90
19483;DHT22;9882;51.166;6.992;2022-10-22T07:49:07;14.70;99.90
19483;DHT22;9882;51.166;6.992;2022-10-22T07:51:37;14.90;99.90
19483;DHT22;9882;51.166;6.992;2022-10-22T07:54:07;14.80;99.90
19483;DHT22;9882;51.166;6.992;2022-10-22T07:56:36;14.90;99.90
19483;DHT22;9882;51.166;6.992;2022-10-22T07:59:05;14.90;99.90
19483;DHT22;9882;51.166;6.992;2022-10-22T08:01:34;14.90;99.90
19483;DHT22;9882;51.166;6.992;2022-10-22T08:04:03;14.90;99.90
19483;DHT22;9882;51.166;6.992;2022-10-22T08:06:35;14.90;99.90
19483;DHT22;9882;51.166;6.992;2022-10-22T08:09:06;15.00;99.90
19483;DHT22;9882;51.166;6.992;2022-10-22T08:11:36;14.90;99.90
19483;DHT22;9882;51.166;6.992;2022-10-22T08:14:07;14.90;99.90
19483;DHT22;9882;51.166;6.992;2022-10-22T08:16:41;15.10;99.90
19483;DHT22;9882;51.166;6.992;2022-10-22T08:19:11;14.80;99.90
19483;DHT22;9882;51.166;6.992;2022-10-22T08:21:45;15.00;99.90
19483;DHT22;9882;51.166;6.992;2022-10-22T08:24:16;15.10;99.90
19483;DHT22;9882;51.166;6.992;2022-10-22T08:26:46;15.10;99.90
19483;DHT22;9882;51.166;6.992;2022-10-22T08:29:18;15.10;99.90
19483;DHT22;9882;51.166;6.992;2022-10-22T08:31:56;15.00;99.90
19483;DHT22;9882;51.166;6.992;2022-10-22T08:34:28;14.90;99.90
19483;DHT22;9882;51.166;6.992;2022-10-22T08:37:04;15.00;99.90
19483;DHT22;9882;51.166;6.992;2022-10-22T08:39:45;15.00;99.90
19483;DHT22;9882;51.166;6.992;2022-10-22T08:42:44;15.10;99.90
19483;DHT22;9882;51.166;6.992;2022-10-22T08:45:23;15.00;99.90
19483;DHT22;9882;51.166;6.992;2022-10-22T08:48:06;15.20;99.90
19483;DHT22;9882;51.166;6.992;2022-10-22T08:50:39;15.10;99.90
19483;DHT22;9882;51.166;6.992;2022-10-22T08:53:13;15.10;99.90
19483;DHT22;9882;51.166;6.992;2022-10-22T08:55:44;15.10;99.90
19483;DHT22;9882;51.166;6.992;2022-10-22T08:58:17;15.10;99.90
19483;DHT22;9882;51.166;6.992;2022-10-22T09:00:52;15.20;99.90
19483;DHT22;9882;51.166;6.992;2022-10-22T09:03:33;15.30;99.90
19483;DHT22;9882;51.166;6.992;2022-10-22T09:06:08;15.30;99.90
19483;DHT22;9882;51.166;6.992;2022-10-22T09:08:39;15.40;99.90
19483;DHT22;9882;51.166;6.992;2022-10-22T09:11:21;15.30;99.90
19483;DHT22;9882;51.166;6.992;2022-10-22T09:13:52;15.40;99.90
19483;DHT22;9882;51.166;6.992;2022-10-22T09:16:26;15.40;99.90
19483;DHT22;9882;51.166;6.992;2022-10-22T09:19:05;15.50;99.90
19483;DHT22;9882;51.166;6.992;2022-10-22T09:21:42;15.60;99.90
19483;DHT22;9882;51.166;6.992;2022-10-22T09:24:16;15.70;99.90
19483;DHT22;9882;51.166;6.992;2022-10-22T09:26:48;15.70;99.90
19483;DHT22;9882;51.166;6.992;2022-10-22T09:29:19;15.60;99.90
19483;DHT22;9882;51.166;6.992;2022-10-22T09:31:50;15.40;99.90
19483;DHT22;9882;51.166;6.992;2022-10-22T09:34:20;15.50;99.90
19483;DHT22;9882;51.166;6.992;2022-10-22T09:36:56;15.60;99.90
19483;DHT22;9882;51.166;6.992;2022-10-22T09:39:27;15.50;99.90
19483;DHT22;9882;51.166;6.992;2022-10-22T09:41:57;15.60;99.90
19483;DHT22;9882;51.166;6.992;2022-10-22T09:44:25;15.60;99.90
19483;DHT22;9882;51.166;6.992;2022-10-22T09:46:54;15.80;99.90
19483;DHT22;9882;51.166;6.992;2022-10-22T09:49:23;15.80;99.90
19483;DHT22;9882;51.166;6.992;2022-10-22T09:51:53;15.70;99.90
19483;DHT22;9882;51.166;6.992;2022-10-22T09:54:23;15.70;99.90
19483;DHT22;9882;51.166;6.992;2022-10-22T09:56:55;15.80;99.90
19483;DHT22;9882;51.166;6.992;2022-10-22T09:59:29;15.70;99.90
19483;DHT22;9882;51.166;6.992;2022-10-22T10:02:00;16.00;99.90
19483;DHT22;9882;51.166;6.992;2022-10-22T10:04:34;15.80;99.90
19483;DHT22;9882;51.166;6.992;2022-10-22T10:07:03;15.90;99.90
19483;DHT22;9882;51.166;6.992;2022-10-22T10:09:41;15.90;99.90
19483;DHT22;9882;51.166;6.992;2022-10-22T10:12:21;15.90;99.90
19483;DHT22;9882;51.166;6.992;2022-10-22T10:15:02;15.90;99.90
19483;DHT22;9882;51.166;6.992;2022-10-22T10:17:35;15.80;99.90
19483;DHT22;9882;51.166;6.992;2022-10-22T10:20:21;15.90;99.90
19483;DHT22;9882;51.166;6.992;2022-10-22T10:22:57;15.80;99.90
19483;DHT22;9882;51.166;6.992;2022-10-22T10:25:36;15.80;99.90
19483;DHT22;9882;51.166;6.992;2022-10-22T10:28:20;16.00;99.90
19483;DHT22;9882;51.166;6.992;2022-10-22T10:31:05;16.00;99.90
19483;DHT22;9882;51.166;6.992;2022-10-22T10:33:46;15.90;99.90
19483;DHT22;9882;51.166;6.992;2022-10-22T10:36:18;16.00;99.90
19483;DHT22;9882;51.166;6.992;2022-10-22T10:38:56;15.90;99.90
19483;DHT22;9882;51.166;6.992;2022-10-22T10:41:36;15.90;99.90
19483;DHT22;9882;51.166;6.992;2022-10-22T10:44:43;15.90;99.90
19483;DHT22;9882;51.166;6.992;2022-10-22T10:47:27;15.90;99.90
19483;DHT22;9882;51.166;6.992;2022-10-22T10:50:16;16.10;99.90
19483;DHT22;9882;51.166;6.992;2022-10-22T10:52:53;16.00;99.90
19483;DHT22;9882;51.166;6.992;2022-10-22T10:55:31;16.00;99.90
19483;DHT22;9882;51.166;6.992;2022-10-22T10:58:11;16.00;99.90
19483;DHT22;9882;51.166;6.992;2022-10-22T11:00:50;16.00;99.90
19483;DHT22;9882;51.166;6.992;2022-10-22T11:03:39;16.10;99.90
19483;DHT22;9882;51.166;6.992;2022-10-22T11:06:15;16.10;99.90
19483;DHT22;9882;51.166;6.992;2022-10-22T11:08:46;16.00;99.90
19483;DHT22;9882;51.166;6.992;2022-10-22T11:11:25;16.00;99.90
19483;DHT22;9882;51.166;6.992;2022-10-22T11:14:00;16.00;99.90
19483;DHT22;9882;51.166;6.992;2022-10-22T11:16:33;16.00;99.90
19483;DHT22;9882;51.166;6.992;2022-10-22T11:19:08;15.90;99.90
19483;DHT22;9882;51.166;6.992;2022-10-22T11:21:46;16.00;99.90
19483;DHT22;9882;51.166;6.992;2022-10-22T11:24:21;16.00;99.90
19483;DHT22;9882;51.166;6.992;2022-10-22T11:26:54;16.00;99.90
19483;DHT22;9882;51.166;6.992;2022-10-22T11:29:27;16.00;99.90
19483;DHT22;9882;51.166;6.992;2022-10-22T11:31:58;15.90;99.90
19483;DHT22;9882;51.166;6.992;2022-10-22T11:34:34;15.90;99.90
19483;DHT22;9882;51.166;6.992;2022-10-22T11:37:05;15.90;99.90
19483;DHT22;9882;51.166;6.992;2022-10-22T11:39:39;15.90;99.90
19483;DHT22;9882;51.166;6.992;2022-10-22T11:42:10;15.90;99.90
19483;DHT22;9882;51.166;6.992;2022-10-22T11:44:57;15.90;99.90
19483;DHT22;9882;51.166;6.992;2022-10-22T11:47:28;16.00;99.90
19483;DHT22;9882;51.166;6.992;2022-10-22T11:50:16;16.00;99.90
19483;DHT22;9882;51.166;6.992;2022-10-22T11:52:53;16.00;99.90
19483;DHT22;9882;51.166;6.992;2022-10-22T11:55:33;16.10;99.90
19483;DHT22;9882;51.166;6.992;2022-10-22T11:58:26;16.00;99.90
19483;DHT22;9882;51.166;6.992;2022-10-22T12:00:56;16.10;99.90
19483;DHT22;9882;51.166;6.992;2022-10-22T12:03:38;16.10;99.90
19483;DHT22;9882;51.166;6.992;2022-10-22T12:06:19;16.20;99.90
19483;DHT22;9882;51.166;6.992;2022-10-22T12:08:57;16.20;99.90
19483;DHT22;9882;51.166;6.992;2022-10-22T12:11:34;16.10;99.90
19483;DHT22;9882;51.166;6.992;2022-10-22T12:14:15;16.20;99.90
19483;DHT22;9882;51.166;6.992;2022-10-22T12:16:46;16.30;99.90
19483;DHT22;9882;51.166;6.992;2022-10-22T12:19:26;16.40;99.90
19483;DHT22;9882;51.166;6.992;2022-10-22T12:21:59;16.40;99.90
19483;DHT22;9882;51.166;6.992;2022-10-22T12:24:31;16.50;99.90
19483;DHT22;9882;51.166;6.992;2022-10-22T12:27:02;16.60;99.90
19483;DHT22;9882;51.166;6.992;2022-10-22T12:29:31;16.70;99.90
19483;DHT22;9882;51.166;6.992;2022-10-22T12:32:03;16.70;99.90
19483;DHT22;9882;51.166;6.992;2022-10-22T12:34:32;16.60;99.90
19483;DHT22;9882;51.166;6.992;2022-10-22T12:37:03;16.60;99.90
19483;DHT22;9882;51.166;6.992;2022-10-22T12:39:32;16.50;99.90
19483;DHT22;9882;51.166;6.992;2022-10-22T12:42:04;16.50;99.90
19483;DHT22;9882;51.166;6.992;2022-10-22T12:44:33;16.60;99.90
19483;DHT22;9882;51.166;6.992;2022-10-22T12:47:02;16.60;99.90
19483;DHT22;9882;51.166;6.992;2022-10-22T12:49:34;16.80;99.90
19483;DHT22;9882;51.166;6.992;2022-10-22T12:52:07;16.80;99.90
19483;DHT22;9882;51.166;6.992;2022-10-22T12:54:40;16.90;99.90
19483;DHT22;9882;51.166;6.992;2022-10-22T12:57:12;16.90;99.90
19483;DHT22;9882;51.166;6.992;2022-10-22T12:59:45;16.90;99.90
19483;DHT22;9882;51.166;6.992;2022-10-22T13:02:19;16.90;99.90
19483;DHT22;9882;51.166;6.992;2022-10-22T13:05:14;16.90;99.90
19483;DHT22;9882;51.166;6.992;2022-10-22T13:07:47;16.70;99.90
19483;DHT22;9882;51.166;6.992;2022-10-22T13:10:21;16.70;99.90
19483;DHT22;9882;51.166;6.992;2022-10-22T13:12:54;16.80;99.90
19483;DHT22;9882;51.166;6.992;2022-10-22T13:15:36;16.80;99.90
19483;DHT22;9882;51.166;6.992;2022-10-22T13:18:14;16.90;99.90
19483;DHT22;9882;51.166;6.992;2022-10-22T13:20:51;16.80;99.90
19483;DHT22;9882;51.166;6.992;2022-10-22T13:23:22;17.00;99.90
19483;DHT22;9882;51.166;6.992;2022-10-22T13:26:00;17.30;99.90
19483;DHT22;9882;51.166;6.992;2022-10-22T13:28:30;17.40;99.90
19483;DHT22;9882;51.166;6.992;2022-10-22T13:31:01;17.20;99.90
19483;DHT22;9882;51.166;6.992;2022-10-22T13:33:37;17.20;99.90
19483;DHT22;9882;51.166;6.992;2022-10-22T13:36:09;17.10;99.90
19483;DHT22;9882;51.166;6.992;2022-10-22T13:38:42;17.10;99.90
19483;DHT22;9882;51.166;6.992;2022-10-22T13:41:21;17.00;99.90
19483;DHT22;9882;51.166;6.992;2022-10-22T13:43:51;17.20;99.90
19483;DHT22;9882;51.166;6.992;2022-10-22T13:46:20;17.00;99.90
19483;DHT22;9882;51.166;6.992;2022-10-22T13:48:51;16.90;99.90
19483;DHT22;9882;51.166;6.992;2022-10-22T13:51:23;16.90;99.90
19483;DHT22;9882;51.166;6.992;2022-10-22T13:53:54;17.00;99.90
19483;DHT22;9882;51.166;6.992;2022-10-22T13:56:23;17.10;99.90
19483;DHT22;9882;51.166;6.992;2022-10-22T13:58:52;17.50;99.90
19483;DHT22;9882;51.166;6.992;2022-10-22T14:01:22;18.30;99.90
19483;DHT22;9882;51.166;6.992;2022-10-22T14:03:53;18.90;99.90
19483;DHT22;9882;51.166;6.992;2022-10-22T14:06:25;18.70;99.90
19483;DHT22;9882;51.166;6.992;2022-10-22T14:08:58;18.40;99.90
19483;DHT22;9882;51.166;6.992;2022-10-22T14:11:27;18.00;99.90
19483;DHT22;9882;51.166;6.992;2022-10-22T14:13:57;17.70;99.90
19483;DHT22;9882;51.166;6.992;2022-10-22T14:16:26;17.80;99.90
19483;DHT22;9882;51.166;6.992;2022-10-22T14:18:57;17.80;99.90
19483;DHT22;9882;51.166;6.992;2022-10-22T14:21:31;17.80;99.90
19483;DHT22;9882;51.166;6.992;2022-10-22T14:24:02;17.80;99.90
19483;DHT22;9882;51.166;6.992;2022-10-22T14:26:31;17.70;99.90
19483;DHT22;9882;51.166;6.992;2022-10-22T14:29:01;17.70;99.90
19483;DHT22;9882;51.166;6.992;2022-10-22T14:31:38;17.80;99.90
19483;DHT22;9882;51.166;6.992;2022-10-22T14:34:13;17.80;99.90
19483;DHT22;9882;51.166;6.992;2022-10-22T14:36:42;18.00;99.90
19483;DHT22;9882;51.166;6.992;2022-10-22T14:39:13;17.80;99.90
19483;DHT22;9882;51.166;6.992;2022-10-22T14:41:41;17.90;99.90
19483;DHT22;9882;51.166;6.992;2022-10-22T14:44:11;17.70;99.90
19483;DHT22;9882;51.166;6.992;2022-10-22T14:46:40;17.60;99.90
19483;DHT22;9882;51.166;6.992;2022-10-22T14:49:10;17.60;99.90
19483;DHT22;9882;51.166;6.992;2022-10-22T14:51:39;17.60;99.90
19483;DHT22;9882;51.166;6.992;2022-10-22T14:54:08;17.50;99.90
19483;DHT22;9882;51.166;6.992;2022-10-22T14:56:37;17.50;99.90
19483;DHT22;9882;51.166;6.992;2022-10-22T14:59:06;17.50;99.90
19483;DHT22;9882;51.166;6.992;2022-10-22T15:01:34;17.40;99.90
19483;DHT22;9882;51.166;6.992;2022-10-22T15:04:05;17.40;99.90
19483;DHT22;9882;51.166;6.992;2022-10-22T15:06:33;17.50;99.90
19483;DHT22;9882;51.166;6.992;2022-10-22T15:09:02;17.70;99.90
19483;DHT22;9882;51.166;6.992;2022-10-22T15:11:31;17.70;99.90
19483;DHT22;9882;51.166;6.992;2022-10-22T15:14:01;17.70;99.90
19483;DHT22;9882;51.166;6.992;2022-10-22T15:16:29;17.70;99.90
19483;DHT22;9882;51.166;6.992;2022-10-22T15:18:58;17.60;99.90
19483;DHT22;9882;51.166;6.992;2022-10-22T15:21:27;17.70;99.90
19483;DHT22;9882;51.166;6.992;2022-10-22T15:23:55;17.60;99.90
19483;DHT22;9882;51.166;6.992;2022-10-22T15:26:24;17.60;99.90
19483;DHT22;9882;51.166;6.992;2022-10-22T15:28:54;17.50;99.90
19483;DHT22;9882;51.166;6.992;2022-10-22T15:31:43;17.50;99.90
19483;DHT22;9882;51.166;6.992;2022-10-22T15:34:16;17.50;99.90
19483;DHT22;9882;51.166;6.992;2022-10-22T15:36:45;17.60;99.90
19483;DHT22;9882;51.166;6.992;2022-10-22T15:39:14;17.50;99.90
19483;DHT22;9882;51.166;6.992;2022-10-22T15:41:42;17.40;99.90
19483;DHT22;9882;51.166;6.992;2022-10-22T15:44:15;17.40;99.90
19483;DHT22;9882;51.166;6.992;2022-10-22T15:46:45;17.20;99.90
19483;DHT22;9882;51.166;6.992;2022-10-22T15:49:13;17.30;99.90
19483;DHT22;9882;51.166;6.992;2022-10-22T15:51:42;17.30;99.90
19483;DHT22;9882;51.166;6.992;2022-10-22T15:54:13;17.30;99.90
19483;DHT22;9882;51.166;6.992;2022-10-22T15:56:41;17.20;99.90
19483;DHT22;9882;51.166;6.992;2022-10-22T15:59:11;17.20;99.90
19483;DHT22;9882;51.166;6.992;2022-10-22T16:01:40;17.20;99.90
19483;DHT22;9882;51.166;6.992;2022-10-22T16:04:11;17.10;99.90
19483;DHT22;9882;51.166;6.992;2022-10-22T16:06:41;17.10;99.90
19483;DHT22;9882;51.166;6.992;2022-10-22T16:09:12;17.00;99.90
19483;DHT22;9882;51.166;6.992;2022-10-22T16:11:42;17.00;99.90
19483;DHT22;9882;51.166;6.992;2022-10-22T16:14:11;17.10;99.90
19483;DHT22;9882;51.166;6.992;2022-10-22T16:16:42;17.00;99.90
19483;DHT22;9882;51.166;6.992;2022-10-22T16:19:14;17.10;99.90
19483;DHT22;9882;51.166;6.992;2022-10-22T16:21:43;17.00;99.90
19483;DHT22;9882;51.166;6.992;2022-10-22T16:24:11;17.10;99.90
19483;DHT22;9882;51.166;6.992;2022-10-22T16:26:40;17.00;99.90
19483;DHT22;9882;51.166;6.992;2022-10-22T16:29:08;17.00;99.90
19483;DHT22;9882;51.166;6.992;2022-10-22T16:31:39;17.00;99.90
19483;DHT22;9882;51.166;6.992;2022-10-22T16:34:09;17.00;99.90
19483;DHT22;9882;51.166;6.992;2022-10-22T16:36:39;17.00;99.90
19483;DHT22;9882;51.166;6.992;2022-10-22T16:39:08;17.00;99.90
19483;DHT22;9882;51.166;6.992;2022-10-22T16:41:37;17.00;99.90
19483;DHT22;9882;51.166;6.992;2022-10-22T16:44:06;17.00;99.90
19483;DHT22;9882;51.166;6.992;2022-10-22T16:46:35;17.10;99.90
19483;DHT22;9882;51.166;6.992;2022-10-22T16:49:05;16.90;99.90
19483;DHT22;9882;51.166;6.992;2022-10-22T16:51:34;17.00;99.90
19483;DHT22;9882;51.166;6.992;2022-10-22T16:54:04;17.00;99.90
19483;DHT22;9882;51.166;6.992;2022-10-22T16:56:34;17.00;99.90
19483;DHT22;9882;51.166;6.992;2022-10-22T16:59:02;16.90;99.90
19483;DHT22;9882;51.166;6.992;2022-10-22T17:01:31;16.90;99.90
19483;DHT22;9882;51.166;6.992;2022-10-22T17:04:02;17.00;99.90
19483;DHT22;9882;51.166;6.992;2022-10-22T17:06:30;17.00;99.90
19483;DHT22;9882;51.166;6.992;2022-10-22T17:08:59;17.00;99.90
19483;DHT22;9882;51.166;6.992;2022-10-22T17:11:28;16.90;99.90
19483;DHT22;9882;51.166;6.992;2022-10-22T17:14:01;16.90;99.90
19483;DHT22;9882;51.166;6.992;2022-10-22T17:16:29;16.80;99.90
19483;DHT22;9882;51.166;6.992;2022-10-22T17:18:58;16.80;99.90
19483;DHT22;9882;51.166;6.992;2022-10-22T17:21:26;16.80;99.90
19483;DHT22;9882;51.166;6.992;2022-10-22T17:23:55;16.80;99.90
19483;DHT22;9882;51.166;6.992;2022-10-22T17:26:25;16.70;99.90
19483;DHT22;9882;51.166;6.992;2022-10-22T17:28:55;16.70;99.90
19483;DHT22;9882;51.166;6.992;2022-10-22T17:31:25;16.60;99.90
19483;DHT22;9882;51.166;6.992;2022-10-22T17:33:55;16.60;99.90
19483;DHT22;9882;51.166;6.992;2022-10-22T17:36:26;16.60;99.90
19483;DHT22;9882;51.166;6.992;2022-10-22T17:38:58;16.60;99.90
19483;DHT22;9882;51.166;6.992;2022-10-22T17:41:29;16.60;99.90
19483;DHT22;9882;51.166;6.992;2022-10-22T17:44:01;16.60;99.90
19483;DHT22;9882;51.166;6.992;2022-10-22T17:46:31;16.60;99.90
19483;DHT22;9882;51.166;6.992;2022-10-22T17:49:02;16.50;99.90
19483;DHT22;9882;51.166;6.992;2022-10-22T17:51:31;16.50;99.90
19483;DHT22;9882;51.166;6.992;2022-10-22T17:53:59;16.50;99.90
19483;DHT22;9882;51.166;6.992;2022-10-22T17:56:28;16.60;99.90
19483;DHT22;9882;51.166;6.992;2022-10-22T17:58:59;16.50;99.90
19483;DHT22;9882;51.166;6.992;2022-10-22T18:01:30;16.50;99.90
19483;DHT22;9882;51.166;6.992;2022-10-22T18:04:01;16.50;99.90
19483;DHT22;9882;51.166;6.992;2022-10-22T18:06:30;16.50;99.90
19483;DHT22;9882;51.166;6.992;2022-10-22T18:08:59;16.50;99.90
19483;DHT22;9882;51.166;6.992;2022-10-22T18:11:30;16.50;99.90
19483;DHT22;9882;51.166;6.992;2022-10-22T18:14:00;16.40;99.90
19483;DHT22;9882;51.166;6.992;2022-10-22T18:16:29;16.40;99.90
19483;DHT22;9882;51.166;6.992;2022-10-22T18:18:58;16.40;99.90
19483;DHT22;9882;51.166;6.992;2022-10-22T18:21:28;16.40;99.90
19483;DHT22;9882;51.166;6.992;2022-10-22T18:23:57;16.40;99.90
19483;DHT22;9882;51.166;6.992;2022-10-22T18:26:26;16.40;99.90
19483;DHT22;9882;51.166;6.992;2022-10-22T18:28:56;16.30;99.90
19483;DHT22;9882;51.166;6.992;2022-10-22T18:31:27;16.30;99.90
19483;DHT22;9882;51.166;6.992;2022-10-22T18:33:57;16.30;99.90
19483;DHT22;9882;51.166;6.992;2022-10-22T18:36:26;16.30;99.90
19483;DHT22;9882;51.166;6.992;2022-10-22T18:38:56;16.20;99.90
19483;DHT22;9882;51.166;6.992;2022-10-22T18:41:26;16.30;99.90
19483;DHT22;9882;51.166;6.992;2022-10-22T18:43:56;16.30;99.90
19483;DHT22;9882;51.166;6.992;2022-10-22T18:46:27;16.30;99.90
19483;DHT22;9882;51.166;6.992;2022-10-22T18:48:57;16.20;99.90
19483;DHT22;9882;51.166;6.992;2022-10-22T18:51:27;16.10;99.90
19483;DHT22;9882;51.166;6.992;2022-10-22T18:53:58;16.20;99.90
19483;DHT22;9882;51.166;6.992;2022-10-22T18:56:46;16.10;99.90
19483;DHT22;9882;51.166;6.992;2022-10-22T18:59:18;16.10;99.90
19483;DHT22;9882;51.166;6.992;2022-10-22T19:01:50;16.10;99.90
19483;DHT22;9882;51.166;6.992;2022-10-22T19:04:18;16.00;99.90
19483;DHT22;9882;51.166;6.992;2022-10-22T19:06:47;16.00;99.90
19483;DHT22;9882;51.166;6.992;2022-10-22T19:09:16;16.00;99.90
19483;DHT22;9882;51.166;6.992;2022-10-22T19:11:45;15.90;99.90
19483;DHT22;9882;51.166;6.992;2022-10-22T19:14:14;15.90;99.90
19483;DHT22;9882;51.166;6.992;2022-10-22T19:16:45;15.90;99.90
19483;DHT22;9882;51.166;6.992;2022-10-22T19:19:18;15.90;99.90
19483;DHT22;9882;51.166;6.992;2022-10-22T19:21:47;15.90;99.90
19483;DHT22;9882;51.166;6.992;2022-10-22T19:24:17;15.90;99.90
19483;DHT22;9882;51.166;6.992;2022-10-22T19:26:46;15.80;99.90
19483;DHT22;9882;51.166;6.992;2022-10-22T19:29:17;15.90;99.90
19483;DHT22;9882;51.166;6.992;2022-10-22T19:31:47;15.90;99.90
19483;DHT22;9882;51.166;6.992;2022-10-22T19:34:19;15.90;99.90
19483;DHT22;9882;51.166;6.992;2022-10-22T19:36:48;15.90;99.90
19483;DHT22;9882;51.166;6.992;2022-10-22T19:39:18;15.90;99.90
19483;DHT22;9882;51.166;6.992;2022-10-22T19:41:47;15.90;99.90
19483;DHT22;9882;51.166;6.992;2022-10-22T19:44:16;15.90;99.90
19483;DHT22;9882;51.166;6.992;2022-10-22T19:46:46;15.80;99.90
19483;DHT22;9882;51.166;6.992;2022-10-22T19:49:15;15.80;99.90
19483;DHT22;9882;51.166;6.992;2022-10-22T19:51:46;15.80;99.90
19483;DHT22;9882;51.166;6.992;2022-10-22T19:54:15;15.80;99.90
19483;DHT22;9882;51.166;6.992;2022-10-22T19:56:47;15.70;99.90
19483;DHT22;9882;51.166;6.992;2022-10-22T19:59:16;15.70;99.90
19483;DHT22;9882;51.166;6.992;2022-10-22T20:01:46;15.70;99.90
19483;DHT22;9882;51.166;6.992;2022-10-22T20:04:17;15.70;99.90
19483;DHT22;9882;51.166;6.992;2022-10-22T20:06:47;15.70;99.90
19483;DHT22;9882;51.166;6.992;2022-10-22T20:09:17;15.60;99.90
19483;DHT22;9882;51.166;6.992;2022-10-22T20:11:46;15.60;99.90
19483;DHT22;9882;51.166;6.992;2022-10-22T20:14:21;15.40;99.90